Time;durP1;ratioP1;P1;durP2;ratioP2;P2;SDS_P1;SDS_P2;PMS_P1;PMS_P2;Temp;Humidity;BMP_temperature;BMP_pressure;BME280_temperature;BME280_humidity;BME280_pressure;Samples;Min_cycle;Max_cycle;Signal;HPM_P1;HPM_P2
2022/07/17 00:04:05;;;;;;;11.07;6.20;;;;;;;;;;10185250;28;20051;-66
2022/07/17 00:08:59;;;;;;;14.00;5.80;;;;;;;;;;10179223;28;20056;-65
2022/07/17 00:13:53;;;;;;;8.60;6.70;;;;;;;;;;10172404;28;20049;-65
2022/07/17 00:18:47;;;;;;;8.82;6.15;;;;;;;;;;10179522;28;20051;-65
2022/07/17 00:23:41;;;;;;;13.88;5.78;;;;;;;;;;10179531;28;20062;-66
2022/07/17 00:28:34;;;;;;;11.55;7.65;;;;;;;;;;10172810;28;20513;-65
2022/07/17 00:33:28;;;;;;;8.10;5.97;;;;;;;;;;10180190;28;20483;-65
2022/07/17 00:38:22;;;;;;;9.27;6.10;;;;;;;;;;10181537;28;20055;-64
2022/07/17 00:43:16;;;;;;;10.35;6.00;;;;;;;;;;10178948;28;20060;-65
2022/07/17 00:48:11;;;;;;;7.30;6.45;;;;;;;;;;10172117;28;20060;-66
2022/07/17 00:53:06;;;;;;;9.38;6.88;;;;;;;;;;10161002;28;20052;-65
2022/07/17 00:58:02;;;;;;;7.72;6.65;;;;;;;;;;10167101;28;20059;-66
2022/07/17 01:02:56;;;;;;;10.18;6.65;;;;;;;;;;10171722;28;20135;-66
2022/07/17 01:07:49;;;;;;;8.43;7.03;;;;;;;;;;10190936;28;20161;-66
2022/07/17 01:12:45;;;;;;;9.13;6.70;;;;;;;;;;10164313;28;20051;-66
2022/07/17 01:17:39;;;;;;;8.23;6.97;;;;;;;;;;10188157;28;20063;-65
2022/07/17 01:22:46;;;;;;;9.27;6.82;;;;;;;;;;10173073;28;20469;-64
2022/07/17 01:27:48;;;;;;;14.68;8.02;;;;;;;;;;10175927;28;20052;-65
2022/07/17 01:32:42;;;;;;;9.50;7.20;;;;;;;;;;10175102;28;20048;-64
2022/07/17 01:37:37;;;;;;;10.80;5.80;;;;;;;;;;10155692;28;20063;-64
2022/07/17 01:42:31;;;;;;;10.13;6.53;;;;;;;;;;10179609;28;20056;-64
2022/07/17 01:47:26;;;;;;;9.43;6.18;;;;;;;;;;10175985;28;20048;-64
2022/07/17 01:52:20;;;;;;;6.72;5.70;;;;;;;;;;10177736;28;20130;-64
2022/07/17 01:57:14;;;;;;;6.82;6.10;;;;;;;;;;10186747;28;20056;-64
2022/07/17 02:02:09;;;;;;;9.60;6.30;;;;;;;;;;10166285;28;20040;-64
2022/07/17 02:07:04;;;;;;;8.27;6.43;;;;;;;;;;10186970;28;20449;-64
2022/07/17 02:11:57;;;;;;;9.45;6.90;;;;;;;;;;10185404;28;20062;-64
2022/07/17 02:16:51;;;;;;;8.00;6.65;;;;;;;;;;10175253;28;20102;-64
2022/07/17 02:21:45;;;;;;;8.20;6.93;;;;;;;;;;10176947;28;20381;-64
2022/07/17 02:26:39;;;;;;;8.27;7.47;;;;;;;;;;10171161;28;20467;-64
2022/07/17 02:31:33;;;;;;;11.30;7.35;;;;;;;;;;10169912;28;20105;-64
2022/07/17 02:36:27;;;;;;;7.40;6.80;;;;;;;;;;10178669;28;20048;-64
2022/07/17 02:41:21;;;;;;;7.40;6.70;;;;;;;;;;10175056;28;20048;-63
2022/07/17 02:46:15;;;;;;;12.18;7.07;;;;;;;;;;10168726;28;20052;-64
2022/07/17 02:51:09;;;;;;;9.55;7.78;;;;;;;;;;10183015;28;20132;-64
2022/07/17 02:56:04;;;;;;;7.38;6.68;;;;;;;;;;10176635;28;20044;-64
2022/07/17 03:00:57;;;;;;;8.32;6.57;;;;;;;;;;10181093;28;20075;-64
2022/07/17 03:05:51;;;;;;;11.18;6.28;;;;;;;;;;10177845;28;20056;-64
2022/07/17 03:10:46;;;;;;;10.35;7.43;;;;;;;;;;10187053;28;20044;-64
2022/07/17 03:15:43;;;;;;;10.35;8.63;;;;;;;;;;10172961;28;20053;-64
2022/07/17 03:20:37;;;;;;;8.57;7.35;;;;;;;;;;10178388;28;20139;-63
2022/07/17 03:25:30;;;;;;;10.75;7.85;;;;;;;;;;10168008;28;20056;-63
2022/07/17 03:30:24;;;;;;;13.90;8.38;;;;;;;;;;10181538;28;20055;-63
2022/07/17 03:35:18;;;;;;;12.40;8.10;;;;;;;;;;10177188;28;20488;-63
2022/07/17 03:40:12;;;;;;;8.10;7.35;;;;;;;;;;10164183;28;20060;-63
2022/07/17 03:45:07;;;;;;;9.25;7.88;;;;;;;;;;10150397;28;20531;-63
2022/07/17 03:50:01;;;;;;;8.95;8.23;;;;;;;;;;10171002;28;20134;-64
2022/07/17 03:54:55;;;;;;;10.43;7.95;;;;;;;;;;10164868;28;20561;-63
2022/07/17 03:59:48;;;;;;;9.35;8.35;;;;;;;;;;10173290;28;20140;-64
2022/07/17 04:04:42;;;;;;;8.18;7.45;;;;;;;;;;10162798;28;20440;-64
2022/07/17 04:09:37;;;;;;;13.35;8.52;;;;;;;;;;10172462;28;20496;-64
2022/07/17 04:14:30;;;;;;;9.65;8.77;;;;;;;;;;10161697;28;20071;-64
2022/07/17 04:19:23;;;;;;;9.55;8.63;;;;;;;;;;10167925;28;20055;-62
2022/07/17 04:24:17;;;;;;;15.10;9.43;;;;;;;;;;10168169;28;20139;-63
2022/07/17 04:29:11;;;;;;;10.90;9.18;;;;;;;;;;10166786;28;20102;-63
2022/07/17 04:34:06;;;;;;;11.27;10.02;;;;;;;;;;10175411;28;20044;-63
2022/07/17 04:39:00;;;;;;;11.25;10.15;;;;;;;;;;10178403;28;20102;-63
2022/07/17 04:43:54;;;;;;;11.57;10.57;;;;;;;;;;10174048;28;20055;-63
2022/07/17 04:48:49;;;;;;;13.43;10.68;;;;;;;;;;10164184;28;20090;-63
2022/07/17 04:53:43;;;;;;;13.25;11.00;;;;;;;;;;10165792;28;20514;-63
2022/07/17 04:58:37;;;;;;;13.43;12.05;;;;;;;;;;10169186;28;20545;-63
2022/07/17 05:03:31;;;;;;;13.50;12.30;;;;;;;;;;10173590;28;20580;-64
2022/07/17 05:08:26;;;;;;;14.70;10.68;;;;;;;;;;10165303;28;20070;-63
2022/07/17 05:13:23;;;;;;;17.65;11.88;;;;;;;;;;10160303;28;20037;-63
2022/07/17 05:18:18;;;;;;;11.15;9.80;;;;;;;;;;10162835;28;20117;-63
2022/07/17 05:23:11;;;;;;;11.80;9.15;;;;;;;;;;10169677;28;20056;-63
2022/07/17 05:28:05;;;;;;;11.27;10.18;;;;;;;;;;10168296;28;20048;-63
2022/07/17 05:32:58;;;;;;;12.77;8.95;;;;;;;;;;10171147;28;20052;-63
2022/07/17 05:37:51;;;;;;;13.00;10.18;;;;;;;;;;10168815;28;20075;-64
2022/07/17 05:42:46;;;;;;;13.98;8.38;;;;;;;;;;10164959;28;20052;-63
2022/07/17 05:47:40;;;;;;;14.07;11.55;;;;;;;;;;10154212;28;20102;-63
2022/07/17 05:52:33;;;;;;;16.05;13.57;;;;;;;;;;10168205;28;20557;-63
2022/07/17 05:57:27;;;;;;;16.92;12.60;;;;;;;;;;10170741;28;20048;-63
2022/07/17 06:02:20;;;;;;;12.88;10.57;;;;;;;;;;10161263;28;20442;-63
2022/07/17 06:07:13;;;;;;;12.27;11.00;;;;;;;;;;10165082;28;20142;-63
2022/07/17 06:12:09;;;;;;;13.80;12.50;;;;;;;;;;10162874;28;20461;-63
2022/07/17 06:17:03;;;;;;;14.90;12.77;;;;;;;;;;10175035;28;20060;-65
2022/07/17 06:21:57;;;;;;;12.52;9.57;;;;;;;;;;10179799;28;20045;-65
2022/07/17 06:26:51;;;;;;;13.73;9.63;;;;;;;;;;10167976;28;20094;-65
2022/07/17 06:31:46;;;;;;;10.70;9.70;;;;;;;;;;10182167;28;20036;-65
2022/07/17 06:36:40;;;;;;;11.00;8.80;;;;;;;;;;10170203;28;20060;-63
2022/07/17 06:41:33;;;;;;;10.82;9.18;;;;;;;;;;10177713;28;20044;-64
2022/07/17 06:46:29;;;;;;;15.82;10.45;;;;;;;;;;10164615;28;20056;-64
2022/07/17 06:51:22;;;;;;;14.85;10.25;;;;;;;;;;10184543;28;20055;-67
2022/07/17 06:56:17;;;;;;;11.43;8.43;;;;;;;;;;10180041;28;20052;-67
2022/07/17 07:01:11;;;;;;;15.25;9.35;;;;;;;;;;10160598;28;20044;-73
2022/07/17 07:06:05;;;;;;;10.32;9.32;;;;;;;;;;10165643;28;20472;-72
2022/07/17 07:10:59;;;;;;;13.13;8.93;;;;;;;;;;10173211;28;20044;-68
2022/07/17 07:15:53;;;;;;;9.32;7.63;;;;;;;;;;10178732;28;20476;-68
2022/07/17 07:20:46;;;;;;;9.05;8.18;;;;;;;;;;10177449;28;20101;-67
2022/07/17 07:25:40;;;;;;;8.35;7.50;;;;;;;;;;10171276;28;20036;-69
2022/07/17 07:30:34;;;;;;;13.23;7.50;;;;;;;;;;10175125;28;20056;-69
2022/07/17 07:35:29;;;;;;;12.20;6.57;;;;;;;;;;10175060;28;20051;-69
2022/07/17 07:40:23;;;;;;;9.82;7.18;;;;;;;;;;10169979;28;20075;-69
2022/07/17 07:45:17;;;;;;;10.40;6.60;;;;;;;;;;10178683;28;20060;-69
2022/07/17 07:50:11;;;;;;;9.32;6.82;;;;;;;;;;10181007;28;20101;-71
2022/07/17 07:55:08;;;;;;;11.80;8.13;;;;;;;;;;10172330;28;20044;-66
2022/07/17 08:00:11;;;;;;;9.00;6.00;;;;;;;;;;10154949;28;20098;-68
2022/07/17 08:05:06;;;;;;;10.00;6.53;;;;;;;;;;10185951;28;20056;-68
2022/07/17 08:10:01;;;;;;;7.10;6.40;;;;;;;;;;10186178;28;20048;-62
2022/07/17 08:14:55;;;;;;;8.90;5.95;;;;;;;;;;10192526;28;20050;-69
2022/07/17 08:19:49;;;;;;;10.10;6.97;;;;;;;;;;10188344;28;20431;-68
2022/07/17 08:24:43;;;;;;;5.72;5.10;;;;;;;;;;10174084;28;20049;-67
2022/07/17 08:29:38;;;;;;;11.75;5.43;;;;;;;;;;10164980;28;20052;-74
2022/07/17 08:34:52;;;;;;;6.75;5.03;;;;;;;;;;10173517;28;20427;-71
2022/07/17 08:39:46;;;;;;;9.60;5.18;;;;;;;;;;10159278;28;20075;-61
2022/07/17 08:44:40;;;;;;;7.72;5.00;;;;;;;;;;10169335;28;20067;-61
2022/07/17 08:49:37;;;;;;;7.10;5.13;;;;;;;;;;10162728;28;20052;-61
2022/07/17 08:54:31;;;;;;;7.07;4.80;;;;;;;;;;10153801;28;20750;-61
2022/07/17 08:59:26;;;;;;;17.95;6.20;;;;;;;;;;10162345;28;20054;-61
2022/07/17 09:04:20;;;;;;;9.48;4.95;;;;;;;;;;10164197;28;20059;-62
2022/07/17 09:09:14;;;;;;;9.00;4.82;;;;;;;;;;10159761;28;20072;-62
2022/07/17 09:14:08;;;;;;;11.95;5.10;;;;;;;;;;10176078;28;20054;-62
2022/07/17 09:19:01;;;;;;;7.65;5.00;;;;;;;;;;10163932;28;20535;-62
2022/07/17 09:24:03;;;;;;;7.80;4.90;;;;;;;;;;10159140;28;20056;-61
2022/07/17 09:28:57;;;;;;;5.57;4.90;;;;;;;;;;10168209;28;20056;-62
2022/07/17 09:33:51;;;;;;;10.85;4.38;;;;;;;;;;10165595;28;20056;-62
2022/07/17 09:38:46;;;;;;;5.53;4.40;;;;;;;;;;10166454;28;20101;-62
2022/07/17 09:43:58;;;;;;;5.25;4.25;;;;;;;;;;10144959;28;20078;-62
2022/07/17 09:48:58;;;;;;;8.15;4.78;;;;;;;;;;10158346;28;20074;-61
2022/07/17 09:53:56;;;;;;;4.63;4.15;;;;;;;;;;10155672;28;20055;-62
2022/07/17 09:58:53;;;;;;;7.38;4.32;;;;;;;;;;10154057;28;20135;-61
2022/07/17 10:03:50;;;;;;;4.97;4.45;;;;;;;;;;10177595;28;20119;-62
2022/07/17 10:08:44;;;;;;;10.07;4.75;;;;;;;;;;10164592;28;20049;-62
2022/07/17 10:13:40;;;;;;;5.55;4.00;;;;;;;;;;10175688;28;20548;-62
2022/07/17 10:18:41;;;;;;;10.07;5.13;;;;;;;;;;10167771;28;20044;-62
2022/07/17 10:23:34;;;;;;;8.90;4.20;;;;;;;;;;10164978;28;20048;-62
2022/07/17 10:28:58;;;;;;;7.05;3.85;;;;;;;;;;10156652;28;20048;-62
2022/07/17 10:34:05;;;;;;;6.07;3.85;;;;;;;;;;10092617;28;20048;-62
2022/07/17 10:38:59;;;;;;;6.07;3.72;;;;;;;;;;10158464;28;20040;-62
2022/07/17 10:43:53;;;;;;;9.35;3.70;;;;;;;;;;10181044;28;20059;-63
2022/07/17 10:48:49;;;;;;;7.70;3.95;;;;;;;;;;10165175;28;20390;-62
2022/07/17 10:53:43;;;;;;;11.85;3.50;;;;;;;;;;10164087;28;20075;-62
2022/07/17 10:58:42;;;;;;;9.52;3.63;;;;;;;;;;10164625;28;20053;-62
2022/07/17 11:03:39;;;;;;;9.15;3.75;;;;;;;;;;10164763;28;20401;-62
2022/07/17 11:09:00;;;;;;;7.68;3.63;;;;;;;;;;10169629;28;20433;-62
2022/07/17 11:13:54;;;;;;;6.65;2.65;;;;;;;;;;10145962;28;20056;-62
2022/07/17 11:18:49;;;;;;;8.47;4.07;;;;;;;;;;10168058;28;20049;-62
2022/07/17 11:23:52;;;;;;;10.20;3.30;;;;;;;;;;10159214;28;20115;-61
2022/07/17 11:28:46;;;;;;;9.05;3.35;;;;;;;;;;10159605;28;20107;-62
2022/07/17 11:33:39;;;;;;;9.32;3.50;;;;;;;;;;10163434;28;20053;-63
2022/07/17 11:38:34;;;;;;;5.43;3.22;;;;;;;;;;10167794;28;20131;-62
2022/07/17 11:43:27;;;;;;;13.15;2.90;;;;;;;;;;10153935;28;20106;-64
2022/07/17 11:48:21;;;;;;;5.72;2.90;;;;;;;;;;10187792;28;20553;-66
2022/07/17 11:53:15;;;;;;;6.93;2.90;;;;;;;;;;10190882;28;20032;-64
2022/07/17 11:58:09;;;;;;;5.32;3.10;;;;;;;;;;10191163;28;20040;-65
2022/07/17 12:03:06;;;;;;;8.37;2.70;;;;;;;;;;10183405;28;20090;-65
2022/07/17 12:08:00;;;;;;;10.25;3.58;;;;;;;;;;10171550;28;20832;-65
2022/07/17 12:13:05;;;;;;;6.70;3.08;;;;;;;;;;10165610;28;20048;-65
2022/07/17 12:17:59;;;;;;;5.73;2.60;;;;;;;;;;10166810;28;20072;-65
2022/07/17 12:22:52;;;;;;;10.90;3.13;;;;;;;;;;10159784;28;20040;-65
2022/07/17 12:27:52;;;;;;;6.40;2.80;;;;;;;;;;10182552;28;20048;-65
2022/07/17 12:32:49;;;;;;;5.93;2.90;;;;;;;;;;10189509;28;20491;-64
2022/07/17 12:38:00;;;;;;;10.82;3.55;;;;;;;;;;10184230;28;20084;-65
2022/07/17 12:42:55;;;;;;;11.23;3.38;;;;;;;;;;10185259;28;20052;-65
2022/07/17 12:47:49;;;;;;;3.13;2.83;;;;;;;;;;10188952;28;20083;-65
2022/07/17 12:52:43;;;;;;;7.28;2.92;;;;;;;;;;10188303;28;21576;-66
2022/07/17 12:57:38;;;;;;;5.97;3.03;;;;;;;;;;10187548;28;20036;-65
2022/07/17 13:02:32;;;;;;;7.55;3.20;;;;;;;;;;10185533;28;20044;-65
2022/07/17 13:07:46;;;;;;;11.25;2.88;;;;;;;;;;10185123;28;20545;-65
2022/07/17 13:12:40;;;;;;;8.23;3.70;;;;;;;;;;10176075;28;20056;-64
2022/07/17 13:17:33;;;;;;;8.02;3.63;;;;;;;;;;10185206;28;20131;-63
2022/07/17 13:22:26;;;;;;;7.60;2.83;;;;;;;;;;10180021;28;20044;-62
2022/07/17 13:27:20;;;;;;;4.30;2.90;;;;;;;;;;10182788;28;20044;-62
2022/07/17 13:32:13;;;;;;;6.13;2.92;;;;;;;;;;10180220;28;20149;-63
2022/07/17 13:37:08;;;;;;;5.63;2.53;;;;;;;;;;10183697;28;20135;-63
2022/07/17 13:42:02;;;;;;;8.60;3.17;;;;;;;;;;10183367;28;20089;-62
2022/07/17 13:46:56;;;;;;;3.20;2.90;;;;;;;;;;10183055;28;20090;-63
2022/07/17 13:51:50;;;;;;;6.90;3.20;;;;;;;;;;10175329;28;20566;-63
2022/07/17 13:56:44;;;;;;;4.82;2.80;;;;;;;;;;10169964;28;20059;-63
2022/07/17 14:01:38;;;;;;;5.35;3.03;;;;;;;;;;10172208;28;20051;-63
2022/07/17 14:06:31;;;;;;;7.03;3.03;;;;;;;;;;10151339;28;20119;-63
2022/07/17 14:11:25;;;;;;;7.10;2.72;;;;;;;;;;10182669;28;20059;-59
2022/07/17 14:16:20;;;;;;;4.47;2.88;;;;;;;;;;10180016;28;20059;-59
2022/07/17 14:21:13;;;;;;;6.20;3.15;;;;;;;;;;10180659;28;20040;-58
2022/07/17 14:26:08;;;;;;;6.50;3.38;;;;;;;;;;10178807;28;20032;-57
2022/07/17 14:31:02;;;;;;;5.18;2.33;;;;;;;;;;10181419;28;21672;-58
2022/07/17 14:35:56;;;;;;;5.20;2.63;;;;;;;;;;10177741;28;20055;-58
2022/07/17 14:40:50;;;;;;;9.25;3.05;;;;;;;;;;10179530;28;20074;-58
2022/07/17 14:45:44;;;;;;;7.88;2.95;;;;;;;;;;10179268;28;20056;-58
2022/07/17 14:50:38;;;;;;;8.23;2.83;;;;;;;;;;10178971;28;20078;-58
2022/07/17 14:55:32;;;;;;;3.95;2.60;;;;;;;;;;10163143;28;20460;-58
2022/07/17 15:00:25;;;;;;;4.50;3.00;;;;;;;;;;10180268;28;20044;-58
2022/07/17 15:05:19;;;;;;;4.07;2.72;;;;;;;;;;10179506;28;20075;-58
2022/07/17 15:10:13;;;;;;;5.43;2.67;;;;;;;;;;10182980;28;20044;-58
2022/07/17 15:15:09;;;;;;;4.65;3.08;;;;;;;;;;10187983;28;20134;-58
2022/07/17 15:20:05;;;;;;;3.47;2.42;;;;;;;;;;10183320;28;20867;-58
2022/07/17 15:24:59;;;;;;;6.65;3.08;;;;;;;;;;10182666;28;20048;-58
2022/07/17 15:29:54;;;;;;;4.78;2.70;;;;;;;;;;10184000;28;20086;-58
2022/07/17 15:34:47;;;;;;;4.18;3.25;;;;;;;;;;10190469;28;20145;-58
2022/07/17 15:39:44;;;;;;;6.82;3.65;;;;;;;;;;10187974;28;20095;-58
2022/07/17 15:44:42;;;;;;;7.05;3.15;;;;;;;;;;10179432;28;20139;-58
2022/07/17 15:49:39;;;;;;;;;;;;;;;;;;10181668;28;20071;-57
2022/07/17 15:54:36;;;;;;;6.95;3.55;;;;;;;;;;10180334;28;19924;-57
2022/07/17 15:59:33;;;;;;;9.02;3.72;;;;;;;;;;10179381;28;20143;-57
2022/07/17 16:04:28;;;;;;;4.90;3.75;;;;;;;;;;10181129;28;20084;-61
2022/07/17 16:09:24;;;;;;;9.38;3.83;;;;;;;;;;10179955;28;20045;-60
2022/07/17 16:14:19;;;;;;;8.17;3.70;;;;;;;;;;10178633;28;20044;-60
2022/07/17 16:19:13;;;;;;;10.85;3.90;;;;;;;;;;10181029;28;20058;-58
2022/07/17 16:24:08;;;;;;;6.22;3.67;;;;;;;;;;10178468;28;20044;-59
2022/07/17 16:29:01;;;;;;;5.20;3.50;;;;;;;;;;10182754;28;20508;-58
2022/07/17 16:33:55;;;;;;;3.80;3.30;;;;;;;;;;10176355;28;20076;-58
2022/07/17 16:38:48;;;;;;;3.97;3.20;;;;;;;;;;10176367;28;20048;-59
2022/07/17 16:43:42;;;;;;;5.50;3.00;;;;;;;;;;10180122;28;20056;-59
2022/07/17 16:48:37;;;;;;;7.63;3.40;;;;;;;;;;10182066;28;20052;-59
2022/07/17 16:53:30;;;;;;;10.73;3.58;;;;;;;;;;10179499;28;20044;-61
2022/07/17 16:58:26;;;;;;;6.93;3.60;;;;;;;;;;10176487;28;20127;-61
2022/07/17 17:03:23;;;;;;;8.48;4.25;;;;;;;;;;10177536;28;20163;-60
2022/07/17 17:08:20;;;;;;;6.88;3.28;;;;;;;;;;10162943;28;20079;-59
2022/07/17 17:13:17;;;;;;;4.57;3.20;;;;;;;;;;10170655;28;20040;-59
2022/07/17 17:18:11;;;;;;;7.25;3.50;;;;;;;;;;10178349;28;20105;-61
2022/07/17 17:23:06;;;;;;;4.22;3.45;;;;;;;;;;10174622;28;20048;-61
2022/07/17 17:27:59;;;;;;;7.95;3.78;;;;;;;;;;10159618;28;20101;-60
2022/07/17 17:32:53;;;;;;;10.25;4.05;;;;;;;;;;10166702;28;20439;-61
2022/07/17 17:37:47;;;;;;;6.25;3.63;;;;;;;;;;10174222;28;20400;-61
2022/07/17 17:42:42;;;;;;;5.50;3.72;;;;;;;;;;10166422;28;20552;-61
2022/07/17 17:47:35;;;;;;;5.63;3.30;;;;;;;;;;10173280;28;20471;-61
2022/07/17 17:52:33;;;;;;;8.68;5.07;;;;;;;;;;10158529;28;20062;-60
2022/07/17 17:57:27;;;;;;;8.73;4.38;;;;;;;;;;10179230;28;20040;-59
2022/07/17 18:02:21;;;;;;;11.10;4.78;;;;;;;;;;10164359;28;20492;-59
2022/07/17 18:07:15;;;;;;;6.65;3.33;;;;;;;;;;10167251;28;20079;-59
2022/07/17 18:12:10;;;;;;;19.55;4.10;;;;;;;;;;10163998;28;20048;-61
2022/07/17 18:17:03;;;;;;;12.65;3.63;;;;;;;;;;10181497;28;20055;-61
2022/07/17 18:21:57;;;;;;;11.10;4.05;;;;;;;;;;10168904;28;20048;-61
2022/07/17 18:26:51;;;;;;;3.90;3.50;;;;;;;;;;10174075;28;20240;-63
2022/07/17 18:31:45;;;;;;;7.57;4.13;;;;;;;;;;10175643;28;20052;-63
2022/07/17 18:36:40;;;;;;;9.52;4.85;;;;;;;;;;10173019;28;20036;-60
2022/07/17 18:41:33;;;;;;;6.28;4.13;;;;;;;;;;10181964;28;20052;-61
2022/07/17 18:46:32;;;;;;;4.47;3.63;;;;;;;;;;10169412;28;20468;-61
2022/07/17 18:51:28;;;;;;;7.70;4.82;;;;;;;;;;10175228;28;20400;-61
2022/07/17 18:56:21;;;;;;;7.75;4.13;;;;;;;;;;10173657;28;20048;-60
2022/07/17 19:01:15;;;;;;;7.10;3.33;;;;;;;;;;10173854;28;20411;-61
2022/07/17 19:06:10;;;;;;;7.28;3.72;;;;;;;;;;10175059;28;20040;-61
2022/07/17 19:11:05;;;;;;;9.98;4.18;;;;;;;;;;10164434;28;20057;-61
2022/07/17 19:15:59;;;;;;;8.85;3.90;;;;;;;;;;10173746;28;20101;-60
2022/07/17 19:20:53;;;;;;;7.10;3.38;;;;;;;;;;10175244;28;20043;-61
2022/07/17 19:25:48;;;;;;;9.05;3.75;;;;;;;;;;10153281;28;20496;-60
2022/07/17 19:30:45;;;;;;;7.75;4.03;;;;;;;;;;10167110;28;20040;-61
2022/07/17 19:35:39;;;;;;;4.63;3.23;;;;;;;;;;10181517;28;20446;-60
2022/07/17 19:40:33;;;;;;;6.72;4.07;;;;;;;;;;10161704;28;20056;-61
2022/07/17 19:45:27;;;;;;;10.25;3.63;;;;;;;;;;10163297;28;20052;-61
2022/07/17 19:50:21;;;;;;;4.38;3.97;;;;;;;;;;10176977;28;20523;-62
2022/07/17 19:55:15;;;;;;;5.85;3.83;;;;;;;;;;10183471;28;20139;-61
2022/07/17 20:00:12;;;;;;;7.30;4.40;;;;;;;;;;10181569;28;20113;-60
2022/07/17 20:05:06;;;;;;;5.80;4.00;;;;;;;;;;10176994;28;20161;-61
2022/07/17 20:10:00;;;;;;;6.00;3.92;;;;;;;;;;10186903;28;20160;-61
2022/07/17 20:14:54;;;;;;;12.35;4.28;;;;;;;;;;10176056;28;20047;-60
2022/07/17 20:19:48;;;;;;;5.07;3.75;;;;;;;;;;10185940;28;20499;-62
2022/07/17 20:24:43;;;;;;;5.45;3.60;;;;;;;;;;10184057;28;20052;-60
2022/07/17 20:29:37;;;;;;;5.38;3.70;;;;;;;;;;10184460;28;20539;-61
2022/07/17 20:34:31;;;;;;;6.10;3.65;;;;;;;;;;10184064;28;20058;-62
2022/07/17 20:39:25;;;;;;;6.22;4.00;;;;;;;;;;10184213;28;20048;-61
2022/07/17 20:44:21;;;;;;;4.68;4.28;;;;;;;;;;10187162;28;20054;-61
2022/07/17 20:49:15;;;;;;;9.02;4.20;;;;;;;;;;10179414;28;20048;-61
2022/07/17 20:54:10;;;;;;;7.00;4.07;;;;;;;;;;10177362;28;20500;-61
2022/07/17 20:59:04;;;;;;;4.55;3.95;;;;;;;;;;10165981;28;20099;-60
2022/07/17 21:03:58;;;;;;;10.30;3.92;;;;;;;;;;10165677;28;20466;-61
2022/07/17 21:08:52;;;;;;;5.60;3.83;;;;;;;;;;10187537;28;20058;-60
2022/07/17 21:13:46;;;;;;;4.05;3.60;;;;;;;;;;10184439;28;20040;-60
2022/07/17 21:18:40;;;;;;;6.85;4.10;;;;;;;;;;10180316;28;20123;-60
2022/07/17 21:23:34;;;;;;;5.60;5.05;;;;;;;;;;10173843;28;20103;-60
2022/07/17 21:28:28;;;;;;;7.97;4.20;;;;;;;;;;10180282;28;20044;-59
2022/07/17 21:33:23;;;;;;;6.80;4.10;;;;;;;;;;10165139;28;20083;-59
2022/07/17 21:38:17;;;;;;;8.57;4.10;;;;;;;;;;10173470;28;20055;-59
2022/07/17 21:43:11;;;;;;;8.32;4.95;;;;;;;;;;10163189;28;20558;-59
2022/07/17 21:48:05;;;;;;;7.75;4.28;;;;;;;;;;10170437;28;20048;-59
2022/07/17 21:52:59;;;;;;;11.55;4.18;;;;;;;;;;10181321;28;20416;-59
2022/07/17 21:57:54;;;;;;;6.97;3.65;;;;;;;;;;10170394;28;20068;-59
2022/07/17 22:02:49;;;;;;;8.02;3.85;;;;;;;;;;10169574;28;20454;-59
2022/07/17 22:07:43;;;;;;;5.47;4.00;;;;;;;;;;10173134;28;20073;-60
2022/07/17 22:12:36;;;;;;;7.00;3.92;;;;;;;;;;10177939;28;20070;-62
2022/07/17 22:17:31;;;;;;;7.68;4.32;;;;;;;;;;10181957;28;20051;-60
2022/07/17 22:22:26;;;;;;;6.57;5.50;;;;;;;;;;10179038;28;20500;-60
2022/07/17 22:27:21;;;;;;;8.82;4.75;;;;;;;;;;10176108;28;20052;-60
2022/07/17 22:32:16;;;;;;;9.02;5.22;;;;;;;;;;10177405;28;20048;-59
2022/07/17 22:37:11;;;;;;;5.47;4.90;;;;;;;;;;10178147;28;20052;-59
2022/07/17 22:42:06;;;;;;;9.50;5.00;;;;;;;;;;10178065;28;20059;-59
2022/07/17 22:46:59;;;;;;;9.25;5.80;;;;;;;;;;10175409;28;20088;-61
2022/07/17 22:51:54;;;;;;;7.03;6.32;;;;;;;;;;10177906;28;20131;-60
2022/07/17 22:56:49;;;;;;;8.23;6.18;;;;;;;;;;10174496;28;20070;-59
2022/07/17 23:01:43;;;;;;;8.70;6.05;;;;;;;;;;10166832;28;20067;-60
2022/07/17 23:06:38;;;;;;;8.23;4.70;;;;;;;;;;10170123;28;20053;-60
2022/07/17 23:11:33;;;;;;;6.25;4.43;;;;;;;;;;10171273;28;20094;-60
2022/07/17 23:16:27;;;;;;;5.90;4.30;;;;;;;;;;10172826;28;20072;-58
2022/07/17 23:21:23;;;;;;;5.70;4.75;;;;;;;;;;10185143;28;20044;-59
2022/07/17 23:26:17;;;;;;;5.50;4.53;;;;;;;;;;10179268;28;20126;-60
2022/07/17 23:31:11;;;;;;;6.53;4.90;;;;;;;;;;10154989;28;20055;-61
2022/07/17 23:36:06;;;;;;;5.38;4.85;;;;;;;;;;10170855;28;20067;-60
2022/07/17 23:41:00;;;;;;;8.23;4.93;;;;;;;;;;10163971;28;20059;-61
2022/07/17 23:45:54;;;;;;;6.90;5.03;;;;;;;;;;10173331;28;20139;-60
2022/07/17 23:50:48;;;;;;;6.22;4.47;;;;;;;;;;10180260;28;20052;-60
2022/07/17 23:55:41;;;;;;;7.07;6.18;;;;;;;;;;10174216;28;20102;-60
